| Ora | Descriere | Temp | Se simte | Precipitatii | Umiditate | Vant |
|---|---|---|---|---|---|---|
| 00:00 | Senin | 12.9° | 13.2° | 0% | 67% | N 4.3 KM/H |
| 01:00 | Senin | 12.5° | 12.3° | 0% | 69% | N 6.1 KM/H |
| 02:00 | Senin | 12.1° | 11.8° | 0% | 70% | N 6.1 KM/H |
| 03:00 | Senin | 11.7° | 11.3° | 0% | 71% | NNE 6.5 KM/H |
| 04:00 | Senin | 11.3° | 11° | 0% | 72% | NNE 6.1 KM/H |
| 05:00 | Senin | 10.9° | 10.9° | 0% | 74% | N 4.7 KM/H |
| 06:00 | Senin | 10.4° | 10.7° | 0% | 76% | N 3.6 KM/H |
| 07:00 | Senin | 11° | 11.2° | 0% | 76% | NNW 4 KM/H |
| 08:00 | Senin | 14.8° | 14.9° | 0% | 69% | NNE 2.5 KM/H |
| 09:00 | Senin | 17.2° | 17.2° | 0% | 63% | E 1.4 KM/H |
| 10:00 | Senin | 18.8° | 18.8° | 0% | 59% | SE 4.3 KM/H |
| 11:00 | 20.3° | 20.3° | 0% | 55% | SSE 4.3 KM/H | |
| 12:00 | 21.6° | 21.6° | 0% | 51% | SSE 4.3 KM/H | |
| 13:00 | 22.7° | 24.6° | 0% | 48% | SSE 4.3 KM/H | |
| 14:00 | 23.4° | 24.8° | 0% | 46% | SE 5.4 KM/H | |
| 15:00 | Senin | 23.9° | 25° | 0% | 45% | SE 5.8 KM/H |
| 16:00 | Senin | 24.3° | 25.2° | 0% | 44% | SE 6.5 KM/H |
| 17:00 | Senin | 24.3° | 25.2° | 0% | 44% | SSE 7.2 KM/H |
| 18:00 | Senin | 24.1° | 25.1° | 0% | 46% | S 7.2 KM/H |
| 19:00 | Patchy rain nearby | 23.3° | 25° | 74% | 55% | S 6.1 KM/H |
| 20:00 | Senin | 18.6° | 18.6° | 0% | 62% | S 4.7 KM/H |
| 21:00 | Patchy rain nearby | 16.2° | 16.2° | 86% | 65% | SSE 2.2 KM/H |
| 22:00 | Senin | 15.4° | 15.4° | 0% | 67% | NNE 2.9 KM/H |
| 23:00 | Senin | 14.6° | 15.1° | 0% | 69% | N 4.3 KM/H |